CheckWX is a tool to help pilots better visualize weather data.  It is not intended as a substitute for an official pre-flight weather briefing.

14:22:29 UTC

RCMQ METAR
Taichung Ching Chuang Kang Airport
Taichung City, Taiwan
Current

52 mins ago

RCMQ 281330Z 02020G30KT 9999 FEW010 15/12 Q1015 RMK A2999
Observed
Mar-28 @ 13:30 UTC
Wind
  • 020° at 20 KTS
  • Gusting to 30 KTS
Visibility
10,000+ meters
Flight Rules
VFR
Cloud Levels
  • Few at 1,000' AGL
Temperature
15°C / 59°F
Dewpoint
12°C / 54°F
Humidity
82%
Altimeter
29.97" Hg
Pressure
1014.92 hPa
Previous

1 hour ago

RCMQ 281300Z 01019G29KT 9999 FEW010 15/12 Q1015 RMK A2999
Observed
Mar-28 @ 13:00 UTC
Wind
  • 010° at 19 KTS
  • Gusting to 29 KTS
Visibility
10,000+ meters
Flight Rules
VFR
Cloud Levels
  • Few at 1,000' AGL
Temperature
15°C / 59°F
Dewpoint
12°C / 54°F
Humidity
82%
Altimeter
29.97" Hg
Pressure
1014.92 hPa
Previous

2 hours ago

RCMQ 281230Z 02021G31KT 9999 FEW008 SCT016 15/12 Q1015 NOSIG RMK A2998
Observed
Mar-28 @ 12:30 UTC
Wind
  • 020° at 21 KTS
  • Gusting to 31 KTS
Visibility
10,000+ meters
Flight Rules
VFR
Cloud Levels
  • Few at 800' AGL
  • Scattered at 1,600' AGL
Temperature
15°C / 59°F
Dewpoint
12°C / 54°F
Humidity
82%
Altimeter
29.97" Hg
Pressure
1014.92 hPa